sensor_id;sensor_type;location;lat;lon;timestamp;P1;durP1;ratioP1;P2;durP2;ratioP2
7669;SDS011;3877;42.562;27.636;2022-11-25T00:02:01;3.10;;;2.80;;
7669;SDS011;3877;42.562;27.636;2022-11-25T00:04:28;3.57;;;3.20;;
7669;SDS011;3877;42.562;27.636;2022-11-25T00:07:00;3.70;;;3.30;;
7669;SDS011;3877;42.562;27.636;2022-11-25T00:09:27;3.73;;;3.37;;
7669;SDS011;3877;42.562;27.636;2022-11-25T00:11:54;4.13;;;3.50;;
7669;SDS011;3877;42.562;27.636;2022-11-25T00:14:23;4.23;;;2.90;;
7669;SDS011;3877;42.562;27.636;2022-11-25T00:16:49;5.07;;;3.43;;
7669;SDS011;3877;42.562;27.636;2022-11-25T00:19:16;5.57;;;3.33;;
7669;SDS011;3877;42.562;27.636;2022-11-25T00:21:43;4.27;;;3.87;;
7669;SDS011;3877;42.562;27.636;2022-11-25T00:24:10;4.53;;;3.77;;
7669;SDS011;3877;42.562;27.636;2022-11-25T00:26:38;4.67;;;3.60;;
7669;SDS011;3877;42.562;27.636;2022-11-25T00:29:06;4.37;;;3.53;;
7669;SDS011;3877;42.562;27.636;2022-11-25T00:31:35;4.50;;;3.43;;
7669;SDS011;3877;42.562;27.636;2022-11-25T00:34:03;4.13;;;3.50;;
7669;SDS011;3877;42.562;27.636;2022-11-25T00:36:30;4.43;;;3.60;;
7669;SDS011;3877;42.562;27.636;2022-11-25T00:38:58;4.43;;;3.40;;
7669;SDS011;3877;42.562;27.636;2022-11-25T00:41:25;4.07;;;3.67;;
7669;SDS011;3877;42.562;27.636;2022-11-25T00:44:10;4.30;;;2.90;;
7669;SDS011;3877;42.562;27.636;2022-11-25T00:46:56;3.40;;;3.10;;
7669;SDS011;3877;42.562;27.636;2022-11-25T00:49:23;3.97;;;2.93;;
7669;SDS011;3877;42.562;27.636;2022-11-25T00:51:50;3.70;;;3.00;;
7669;SDS011;3877;42.562;27.636;2022-11-25T00:54:17;3.23;;;2.93;;
7669;SDS011;3877;42.562;27.636;2022-11-25T00:56:44;4.70;;;3.03;;
7669;SDS011;3877;42.562;27.636;2022-11-25T00:59:11;3.47;;;2.80;;
7669;SDS011;3877;42.562;27.636;2022-11-25T01:01:38;3.37;;;2.97;;
7669;SDS011;3877;42.562;27.636;2022-11-25T01:04:06;3.70;;;3.27;;
7669;SDS011;3877;42.562;27.636;2022-11-25T01:06:34;3.30;;;3.00;;
7669;SDS011;3877;42.562;27.636;2022-11-25T01:09:02;3.60;;;3.00;;
7669;SDS011;3877;42.562;27.636;2022-11-25T01:11:29;3.50;;;2.83;;
7669;SDS011;3877;42.562;27.636;2022-11-25T01:13:56;3.33;;;2.40;;
7669;SDS011;3877;42.562;27.636;2022-11-25T01:16:23;2.73;;;2.50;;
7669;SDS011;3877;42.562;27.636;2022-11-25T01:18:50;3.07;;;2.77;;
7669;SDS011;3877;42.562;27.636;2022-11-25T01:21:20;4.73;;;2.60;;
7669;SDS011;3877;42.562;27.636;2022-11-25T01:23:47;3.17;;;2.60;;
7669;SDS011;3877;42.562;27.636;2022-11-25T01:26:15;3.30;;;2.43;;
7669;SDS011;3877;42.562;27.636;2022-11-25T01:28:42;3.37;;;3.00;;
7669;SDS011;3877;42.562;27.636;2022-11-25T01:31:09;3.30;;;2.97;;
7669;SDS011;3877;42.562;27.636;2022-11-25T01:33:36;4.10;;;3.10;;
7669;SDS011;3877;42.562;27.636;2022-11-25T01:36:04;3.43;;;2.50;;
7669;SDS011;3877;42.562;27.636;2022-11-25T01:38:33;2.93;;;2.50;;
7669;SDS011;3877;42.562;27.636;2022-11-25T01:41:01;3.50;;;2.83;;
7669;SDS011;3877;42.562;27.636;2022-11-25T01:43:28;3.27;;;2.77;;
7669;SDS011;3877;42.562;27.636;2022-11-25T01:45:56;3.87;;;2.70;;
7669;SDS011;3877;42.562;27.636;2022-11-25T01:48:26;3.40;;;2.70;;
7669;SDS011;3877;42.562;27.636;2022-11-25T01:50:54;2.97;;;2.60;;
7669;SDS011;3877;42.562;27.636;2022-11-25T01:53:21;3.40;;;2.70;;
7669;SDS011;3877;42.562;27.636;2022-11-25T01:55:51;3.77;;;2.60;;
7669;SDS011;3877;42.562;27.636;2022-11-25T01:58:20;3.03;;;2.63;;
7669;SDS011;3877;42.562;27.636;2022-11-25T02:00:48;4.40;;;2.57;;
7669;SDS011;3877;42.562;27.636;2022-11-25T02:03:18;2.80;;;2.50;;
7669;SDS011;3877;42.562;27.636;2022-11-25T02:05:47;3.93;;;2.90;;
7669;SDS011;3877;42.562;27.636;2022-11-25T02:08:15;3.57;;;2.30;;
7669;SDS011;3877;42.562;27.636;2022-11-25T02:10:43;5.60;;;2.90;;
7669;SDS011;3877;42.562;27.636;2022-11-25T02:13:11;2.93;;;2.43;;
7669;SDS011;3877;42.562;27.636;2022-11-25T02:15:38;3.30;;;2.80;;
7669;SDS011;3877;42.562;27.636;2022-11-25T02:18:05;3.10;;;2.57;;
7669;SDS011;3877;42.562;27.636;2022-11-25T02:20:32;2.87;;;2.50;;
7669;SDS011;3877;42.562;27.636;2022-11-25T02:23:00;4.17;;;2.90;;
7669;SDS011;3877;42.562;27.636;2022-11-25T02:25:30;3.43;;;2.83;;
7669;SDS011;3877;42.562;27.636;2022-11-25T02:28:00;3.47;;;2.70;;
7669;SDS011;3877;42.562;27.636;2022-11-25T02:30:27;2.47;;;2.27;;
7669;SDS011;3877;42.562;27.636;2022-11-25T02:32:54;3.20;;;2.37;;
7669;SDS011;3877;42.562;27.636;2022-11-25T02:35:25;3.77;;;2.60;;
7669;SDS011;3877;42.562;27.636;2022-11-25T02:37:53;2.57;;;2.20;;
7669;SDS011;3877;42.562;27.636;2022-11-25T02:40:20;5.13;;;2.40;;
7669;SDS011;3877;42.562;27.636;2022-11-25T02:42:49;3.53;;;2.50;;
7669;SDS011;3877;42.562;27.636;2022-11-25T02:45:16;3.67;;;2.30;;
7669;SDS011;3877;42.562;27.636;2022-11-25T02:47:46;2.60;;;2.40;;
7669;SDS011;3877;42.562;27.636;2022-11-25T02:50:13;3.67;;;2.60;;
7669;SDS011;3877;42.562;27.636;2022-11-25T02:52:40;3.60;;;2.57;;
7669;SDS011;3877;42.562;27.636;2022-11-25T02:55:07;2.90;;;2.43;;
7669;SDS011;3877;42.562;27.636;2022-11-25T02:57:35;3.27;;;2.60;;
7669;SDS011;3877;42.562;27.636;2022-11-25T03:00:03;2.80;;;2.23;;
7669;SDS011;3877;42.562;27.636;2022-11-25T03:02:30;3.03;;;2.27;;
7669;SDS011;3877;42.562;27.636;2022-11-25T03:04:58;2.87;;;2.20;;
7669;SDS011;3877;42.562;27.636;2022-11-25T03:07:25;3.60;;;2.90;;
7669;SDS011;3877;42.562;27.636;2022-11-25T03:09:52;3.27;;;2.60;;
7669;SDS011;3877;42.562;27.636;2022-11-25T03:12:19;3.63;;;2.30;;
7669;SDS011;3877;42.562;27.636;2022-11-25T03:14:46;2.80;;;2.47;;
7669;SDS011;3877;42.562;27.636;2022-11-25T03:17:14;3.03;;;2.50;;
7669;SDS011;3877;42.562;27.636;2022-11-25T03:19:41;2.87;;;2.27;;
7669;SDS011;3877;42.562;27.636;2022-11-25T03:22:08;2.87;;;2.63;;
7669;SDS011;3877;42.562;27.636;2022-11-25T03:24:35;4.43;;;2.40;;
7669;SDS011;3877;42.562;27.636;2022-11-25T03:27:02;3.73;;;2.70;;
7669;SDS011;3877;42.562;27.636;2022-11-25T03:29:29;4.63;;;2.67;;
7669;SDS011;3877;42.562;27.636;2022-11-25T03:31:56;3.53;;;2.40;;
7669;SDS011;3877;42.562;27.636;2022-11-25T03:34:24;2.50;;;2.30;;
7669;SDS011;3877;42.562;27.636;2022-11-25T03:36:51;3.27;;;2.70;;
7669;SDS011;3877;42.562;27.636;2022-11-25T03:39:18;5.77;;;2.90;;
7669;SDS011;3877;42.562;27.636;2022-11-25T03:41:44;2.53;;;2.33;;
7669;SDS011;3877;42.562;27.636;2022-11-25T03:44:11;2.83;;;2.30;;
7669;SDS011;3877;42.562;27.636;2022-11-25T03:46:38;2.83;;;2.53;;
7669;SDS011;3877;42.562;27.636;2022-11-25T03:49:05;4.03;;;2.83;;
7669;SDS011;3877;42.562;27.636;2022-11-25T03:51:33;2.77;;;2.37;;
7669;SDS011;3877;42.562;27.636;2022-11-25T03:54:00;3.67;;;2.80;;
7669;SDS011;3877;42.562;27.636;2022-11-25T03:56:27;4.63;;;2.60;;
7669;SDS011;3877;42.562;27.636;2022-11-25T03:58:54;3.47;;;2.70;;
7669;SDS011;3877;42.562;27.636;2022-11-25T04:01:21;3.53;;;3.17;;
7669;SDS011;3877;42.562;27.636;2022-11-25T04:03:48;5.13;;;3.33;;
7669;SDS011;3877;42.562;27.636;2022-11-25T04:06:15;5.97;;;3.07;;
7669;SDS011;3877;42.562;27.636;2022-11-25T04:08:45;4.30;;;3.10;;
7669;SDS011;3877;42.562;27.636;2022-11-25T04:11:12;5.30;;;3.20;;
7669;SDS011;3877;42.562;27.636;2022-11-25T04:13:39;3.93;;;2.93;;
7669;SDS011;3877;42.562;27.636;2022-11-25T04:16:05;5.00;;;3.13;;
7669;SDS011;3877;42.562;27.636;2022-11-25T04:18:32;3.97;;;3.03;;
7669;SDS011;3877;42.562;27.636;2022-11-25T04:20:59;3.30;;;2.80;;
7669;SDS011;3877;42.562;27.636;2022-11-25T04:23:26;3.17;;;2.60;;
7669;SDS011;3877;42.562;27.636;2022-11-25T04:25:54;3.77;;;2.63;;
7669;SDS011;3877;42.562;27.636;2022-11-25T04:28:21;3.70;;;2.90;;
7669;SDS011;3877;42.562;27.636;2022-11-25T04:30:48;8.90;;;2.87;;
7669;SDS011;3877;42.562;27.636;2022-11-25T04:33:14;4.97;;;3.20;;
7669;SDS011;3877;42.562;27.636;2022-11-25T04:35:42;3.47;;;2.77;;
7669;SDS011;3877;42.562;27.636;2022-11-25T04:38:09;4.37;;;2.93;;
7669;SDS011;3877;42.562;27.636;2022-11-25T04:40:35;4.13;;;2.90;;
7669;SDS011;3877;42.562;27.636;2022-11-25T04:43:04;4.33;;;2.93;;
7669;SDS011;3877;42.562;27.636;2022-11-25T04:45:31;4.27;;;2.83;;
7669;SDS011;3877;42.562;27.636;2022-11-25T04:47:58;4.70;;;3.23;;
7669;SDS011;3877;42.562;27.636;2022-11-25T04:50:24;4.50;;;3.00;;
7669;SDS011;3877;42.562;27.636;2022-11-25T04:52:51;3.00;;;2.70;;
7669;SDS011;3877;42.562;27.636;2022-11-25T04:55:18;4.37;;;2.80;;
7669;SDS011;3877;42.562;27.636;2022-11-25T04:57:45;4.10;;;2.83;;
7669;SDS011;3877;42.562;27.636;2022-11-25T05:00:13;3.83;;;3.07;;
7669;SDS011;3877;42.562;27.636;2022-11-25T05:02:39;4.77;;;3.03;;
7669;SDS011;3877;42.562;27.636;2022-11-25T05:05:06;3.73;;;3.00;;
7669;SDS011;3877;42.562;27.636;2022-11-25T05:07:33;3.37;;;2.67;;
7669;SDS011;3877;42.562;27.636;2022-11-25T05:10:00;4.23;;;3.10;;
7669;SDS011;3877;42.562;27.636;2022-11-25T05:12:27;5.27;;;3.23;;
7669;SDS011;3877;42.562;27.636;2022-11-25T05:14:54;6.03;;;3.40;;
7669;SDS011;3877;42.562;27.636;2022-11-25T05:17:23;6.23;;;3.50;;
7669;SDS011;3877;42.562;27.636;2022-11-25T05:19:51;4.97;;;3.53;;
7669;SDS011;3877;42.562;27.636;2022-11-25T05:22:18;8.43;;;4.43;;
7669;SDS011;3877;42.562;27.636;2022-11-25T05:24:46;6.10;;;5.03;;
7669;SDS011;3877;42.562;27.636;2022-11-25T05:27:13;10.37;;;6.57;;
7669;SDS011;3877;42.562;27.636;2022-11-25T05:29:40;4.13;;;3.33;;
7669;SDS011;3877;42.562;27.636;2022-11-25T05:32:07;4.67;;;3.07;;
7669;SDS011;3877;42.562;27.636;2022-11-25T05:34:35;7.77;;;3.77;;
7669;SDS011;3877;42.562;27.636;2022-11-25T05:37:02;4.83;;;3.40;;
7669;SDS011;3877;42.562;27.636;2022-11-25T05:39:29;9.30;;;3.60;;
7669;SDS011;3877;42.562;27.636;2022-11-25T05:41:56;9.70;;;3.60;;
7669;SDS011;3877;42.562;27.636;2022-11-25T05:44:22;8.70;;;3.20;;
7669;SDS011;3877;42.562;27.636;2022-11-25T05:46:49;6.80;;;3.23;;
7669;SDS011;3877;42.562;27.636;2022-11-25T05:49:16;12.53;;;4.17;;
7669;SDS011;3877;42.562;27.636;2022-11-25T05:51:45;8.17;;;3.87;;
7669;SDS011;3877;42.562;27.636;2022-11-25T05:54:12;4.17;;;3.50;;
7669;SDS011;3877;42.562;27.636;2022-11-25T05:56:39;6.27;;;3.87;;
7669;SDS011;3877;42.562;27.636;2022-11-25T05:59:06;6.90;;;3.80;;
7669;SDS011;3877;42.562;27.636;2022-11-25T06:01:33;9.53;;;4.43;;
7669;SDS011;3877;42.562;27.636;2022-11-25T06:04:00;7.33;;;4.23;;
7669;SDS011;3877;42.562;27.636;2022-11-25T06:06:27;8.33;;;3.80;;
7669;SDS011;3877;42.562;27.636;2022-11-25T06:08:55;6.17;;;4.17;;
7669;SDS011;3877;42.562;27.636;2022-11-25T06:11:22;7.73;;;4.03;;
7669;SDS011;3877;42.562;27.636;2022-11-25T06:13:50;7.70;;;4.27;;
7669;SDS011;3877;42.562;27.636;2022-11-25T06:16:18;8.80;;;4.27;;
7669;SDS011;3877;42.562;27.636;2022-11-25T06:18:45;5.83;;;4.10;;
7669;SDS011;3877;42.562;27.636;2022-11-25T06:21:12;13.03;;;4.70;;
7669;SDS011;3877;42.562;27.636;2022-11-25T06:23:39;5.60;;;3.60;;
7669;SDS011;3877;42.562;27.636;2022-11-25T06:26:09;12.63;;;4.00;;
7669;SDS011;3877;42.562;27.636;2022-11-25T06:28:37;7.67;;;3.50;;
7669;SDS011;3877;42.562;27.636;2022-11-25T06:31:05;13.40;;;4.37;;
7669;SDS011;3877;42.562;27.636;2022-11-25T06:33:32;10.07;;;4.27;;
7669;SDS011;3877;42.562;27.636;2022-11-25T06:36:00;6.57;;;5.03;;
7669;SDS011;3877;42.562;27.636;2022-11-25T06:38:27;8.57;;;5.50;;
7669;SDS011;3877;42.562;27.636;2022-11-25T06:40:57;5.57;;;3.90;;
7669;SDS011;3877;42.562;27.636;2022-11-25T06:43:26;5.77;;;3.60;;
7669;SDS011;3877;42.562;27.636;2022-11-25T06:45:53;4.27;;;3.77;;
7669;SDS011;3877;42.562;27.636;2022-11-25T06:48:19;6.40;;;4.20;;
7669;SDS011;3877;42.562;27.636;2022-11-25T06:50:53;8.17;;;5.83;;
7669;SDS011;3877;42.562;27.636;2022-11-25T06:53:20;9.13;;;6.10;;
7669;SDS011;3877;42.562;27.636;2022-11-25T06:55:47;12.10;;;6.00;;
7669;SDS011;3877;42.562;27.636;2022-11-25T06:58:14;8.03;;;5.10;;
7669;SDS011;3877;42.562;27.636;2022-11-25T07:00:42;7.20;;;4.93;;
7669;SDS011;3877;42.562;27.636;2022-11-25T07:03:09;14.63;;;6.27;;
7669;SDS011;3877;42.562;27.636;2022-11-25T07:05:36;8.87;;;5.60;;
7669;SDS011;3877;42.562;27.636;2022-11-25T07:08:03;10.70;;;5.80;;
7669;SDS011;3877;42.562;27.636;2022-11-25T07:10:30;10.20;;;5.10;;
7669;SDS011;3877;42.562;27.636;2022-11-25T07:12:56;5.87;;;4.07;;
7669;SDS011;3877;42.562;27.636;2022-11-25T07:15:23;3.83;;;3.30;;
7669;SDS011;3877;42.562;27.636;2022-11-25T07:17:51;5.47;;;3.10;;
7669;SDS011;3877;42.562;27.636;2022-11-25T07:20:18;30.10;;;4.67;;
7669;SDS011;3877;42.562;27.636;2022-11-25T07:22:45;8.00;;;3.40;;
7669;SDS011;3877;42.562;27.636;2022-11-25T07:25:12;3.50;;;2.87;;
7669;SDS011;3877;42.562;27.636;2022-11-25T07:27:39;5.40;;;3.10;;
7669;SDS011;3877;42.562;27.636;2022-11-25T07:30:06;4.43;;;2.97;;
7669;SDS011;3877;42.562;27.636;2022-11-25T07:32:33;6.20;;;3.57;;
7669;SDS011;3877;42.562;27.636;2022-11-25T07:35:01;4.10;;;3.27;;
7669;SDS011;3877;42.562;27.636;2022-11-25T07:37:28;5.77;;;2.80;;
7669;SDS011;3877;42.562;27.636;2022-11-25T07:39:55;4.13;;;3.00;;
7669;SDS011;3877;42.562;27.636;2022-11-25T07:42:22;4.90;;;3.70;;
7669;SDS011;3877;42.562;27.636;2022-11-25T07:44:49;5.40;;;3.33;;
7669;SDS011;3877;42.562;27.636;2022-11-25T07:47:15;4.90;;;3.70;;
7669;SDS011;3877;42.562;27.636;2022-11-25T07:49:42;5.00;;;3.30;;
7669;SDS011;3877;42.562;27.636;2022-11-25T07:52:11;3.37;;;2.90;;
7669;SDS011;3877;42.562;27.636;2022-11-25T07:54:37;5.80;;;3.80;;
7669;SDS011;3877;42.562;27.636;2022-11-25T07:57:04;6.30;;;3.60;;
7669;SDS011;3877;42.562;27.636;2022-11-25T07:59:31;5.27;;;3.60;;
7669;SDS011;3877;42.562;27.636;2022-11-25T08:01:58;4.57;;;3.50;;
7669;SDS011;3877;42.562;27.636;2022-11-25T08:04:25;4.63;;;3.40;;
7669;SDS011;3877;42.562;27.636;2022-11-25T08:06:52;4.50;;;3.40;;
7669;SDS011;3877;42.562;27.636;2022-11-25T08:09:21;3.73;;;3.10;;
7669;SDS011;3877;42.562;27.636;2022-11-25T08:11:48;4.73;;;3.30;;
7669;SDS011;3877;42.562;27.636;2022-11-25T08:14:15;4.60;;;3.20;;
7669;SDS011;3877;42.562;27.636;2022-11-25T08:16:42;5.10;;;3.20;;
7669;SDS011;3877;42.562;27.636;2022-11-25T08:19:11;4.30;;;3.60;;
7669;SDS011;3877;42.562;27.636;2022-11-25T08:21:38;4.43;;;3.40;;
7669;SDS011;3877;42.562;27.636;2022-11-25T08:24:05;6.13;;;3.80;;
7669;SDS011;3877;42.562;27.636;2022-11-25T08:26:34;6.33;;;3.37;;
7669;SDS011;3877;42.562;27.636;2022-11-25T08:29:02;4.13;;;3.00;;
7669;SDS011;3877;42.562;27.636;2022-11-25T08:31:30;3.90;;;3.27;;
7669;SDS011;3877;42.562;27.636;2022-11-25T08:33:57;6.43;;;3.23;;
7669;SDS011;3877;42.562;27.636;2022-11-25T08:36:24;6.00;;;3.37;;
7669;SDS011;3877;42.562;27.636;2022-11-25T08:38:52;4.17;;;3.10;;
7669;SDS011;3877;42.562;27.636;2022-11-25T08:41:20;4.67;;;3.10;;
7669;SDS011;3877;42.562;27.636;2022-11-25T08:43:49;3.23;;;2.90;;
7669;SDS011;3877;42.562;27.636;2022-11-25T08:46:16;5.87;;;3.83;;
7669;SDS011;3877;42.562;27.636;2022-11-25T08:48:44;5.30;;;3.30;;
7669;SDS011;3877;42.562;27.636;2022-11-25T08:51:12;4.33;;;3.40;;
7669;SDS011;3877;42.562;27.636;2022-11-25T08:53:39;9.63;;;3.80;;
7669;SDS011;3877;42.562;27.636;2022-11-25T08:56:06;3.53;;;2.93;;
7669;SDS011;3877;42.562;27.636;2022-11-25T08:58:33;8.10;;;3.50;;
7669;SDS011;3877;42.562;27.636;2022-11-25T09:01:02;5.70;;;3.60;;
7669;SDS011;3877;42.562;27.636;2022-11-25T09:03:30;5.13;;;3.10;;
7669;SDS011;3877;42.562;27.636;2022-11-25T09:05:57;4.67;;;3.40;;
7669;SDS011;3877;42.562;27.636;2022-11-25T09:08:25;4.30;;;3.13;;
7669;SDS011;3877;42.562;27.636;2022-11-25T09:10:52;4.33;;;3.30;;
7669;SDS011;3877;42.562;27.636;2022-11-25T09:13:19;5.13;;;2.97;;
7669;SDS011;3877;42.562;27.636;2022-11-25T09:15:46;4.63;;;3.03;;
7669;SDS011;3877;42.562;27.636;2022-11-25T09:18:14;5.53;;;3.50;;
7669;SDS011;3877;42.562;27.636;2022-11-25T09:20:43;6.77;;;3.60;;
7669;SDS011;3877;42.562;27.636;2022-11-25T09:23:10;3.93;;;3.10;;
7669;SDS011;3877;42.562;27.636;2022-11-25T09:25:37;3.93;;;2.90;;
7669;SDS011;3877;42.562;27.636;2022-11-25T09:28:04;8.07;;;3.20;;
7669;SDS011;3877;42.562;27.636;2022-11-25T09:30:31;6.53;;;3.50;;
7669;SDS011;3877;42.562;27.636;2022-11-25T09:32:57;4.27;;;3.20;;
7669;SDS011;3877;42.562;27.636;2022-11-25T09:35:26;5.70;;;3.20;;
7669;SDS011;3877;42.562;27.636;2022-11-25T09:37:53;4.60;;;2.87;;
7669;SDS011;3877;42.562;27.636;2022-11-25T09:40:20;6.60;;;3.50;;
7669;SDS011;3877;42.562;27.636;2022-11-25T09:42:54;6.03;;;3.43;;
7669;SDS011;3877;42.562;27.636;2022-11-25T09:45:44;4.23;;;2.80;;
7669;SDS011;3877;42.562;27.636;2022-11-25T09:48:33;4.67;;;3.40;;
7669;SDS011;3877;42.562;27.636;2022-11-25T09:51:09;4.43;;;3.60;;
7669;SDS011;3877;42.562;27.636;2022-11-25T09:53:42;3.07;;;2.77;;
7669;SDS011;3877;42.562;27.636;2022-11-25T09:56:10;3.53;;;3.20;;
7669;SDS011;3877;42.562;27.636;2022-11-25T09:58:40;4.30;;;3.37;;
7669;SDS011;3877;42.562;27.636;2022-11-25T10:01:11;4.60;;;3.40;;
7669;SDS011;3877;42.562;27.636;2022-11-25T10:03:40;4.00;;;3.20;;
7669;SDS011;3877;42.562;27.636;2022-11-25T10:06:11;5.30;;;3.40;;
7669;SDS011;3877;42.562;27.636;2022-11-25T10:08:40;6.30;;;2.83;;
7669;SDS011;3877;42.562;27.636;2022-11-25T10:11:13;4.03;;;2.90;;
7669;SDS011;3877;42.562;27.636;2022-11-25T10:13:43;4.33;;;3.17;;
7669;SDS011;3877;42.562;27.636;2022-11-25T10:16:13;7.73;;;3.47;;
7669;SDS011;3877;42.562;27.636;2022-11-25T10:18:48;4.57;;;3.50;;
7669;SDS011;3877;42.562;27.636;2022-11-25T10:21:17;5.43;;;4.07;;
7669;SDS011;3877;42.562;27.636;2022-11-25T10:23:43;5.40;;;3.43;;
7669;SDS011;3877;42.562;27.636;2022-11-25T10:26:11;5.20;;;3.57;;
7669;SDS011;3877;42.562;27.636;2022-11-25T10:28:39;7.07;;;3.33;;
7669;SDS011;3877;42.562;27.636;2022-11-25T10:31:09;5.73;;;3.63;;
7669;SDS011;3877;42.562;27.636;2022-11-25T10:33:40;5.43;;;3.40;;
7669;SDS011;3877;42.562;27.636;2022-11-25T10:36:10;5.53;;;3.50;;
7669;SDS011;3877;42.562;27.636;2022-11-25T10:38:42;7.47;;;3.70;;
7669;SDS011;3877;42.562;27.636;2022-11-25T10:41:11;5.70;;;3.90;;
7669;SDS011;3877;42.562;27.636;2022-11-25T10:43:40;8.57;;;3.63;;
7669;SDS011;3877;42.562;27.636;2022-11-25T10:46:09;6.73;;;3.93;;
7669;SDS011;3877;42.562;27.636;2022-11-25T10:48:49;6.67;;;4.30;;
7669;SDS011;3877;42.562;27.636;2022-11-25T10:51:28;8.30;;;4.23;;
7669;SDS011;3877;42.562;27.636;2022-11-25T10:54:11;6.17;;;4.50;;
7669;SDS011;3877;42.562;27.636;2022-11-25T10:56:47;8.17;;;5.60;;
7669;SDS011;3877;42.562;27.636;2022-11-25T10:59:21;7.00;;;5.07;;
7669;SDS011;3877;42.562;27.636;2022-11-25T11:01:48;5.97;;;4.23;;
7669;SDS011;3877;42.562;27.636;2022-11-25T11:04:16;5.33;;;4.37;;
7669;SDS011;3877;42.562;27.636;2022-11-25T11:06:44;5.20;;;3.67;;
7669;SDS011;3877;42.562;27.636;2022-11-25T11:11:57;4.97;;;3.80;;
7669;SDS011;3877;42.562;27.636;2022-11-25T11:14:32;5.10;;;3.80;;
7669;SDS011;3877;42.562;27.636;2022-11-25T11:16:59;4.40;;;3.27;;
7669;SDS011;3877;42.562;27.636;2022-11-25T11:19:27;3.93;;;3.53;;
7669;SDS011;3877;42.562;27.636;2022-11-25T11:21:54;4.63;;;3.03;;
7669;SDS011;3877;42.562;27.636;2022-11-25T11:24:22;7.63;;;3.73;;
7669;SDS011;3877;42.562;27.636;2022-11-25T11:27:01;5.93;;;3.87;;
7669;SDS011;3877;42.562;27.636;2022-11-25T11:29:29;4.37;;;3.67;;
7669;SDS011;3877;42.562;27.636;2022-11-25T11:31:57;4.00;;;3.00;;
7669;SDS011;3877;42.562;27.636;2022-11-25T11:37:23;4.33;;;3.00;;
7669;SDS011;3877;42.562;27.636;2022-11-25T11:40:04;8.60;;;3.10;;
7669;SDS011;3877;42.562;27.636;2022-11-25T11:42:40;7.50;;;3.40;;
7669;SDS011;3877;42.562;27.636;2022-11-25T11:45:12;6.03;;;3.50;;
7669;SDS011;3877;42.562;27.636;2022-11-25T11:47:45;5.10;;;3.57;;
7669;SDS011;3877;42.562;27.636;2022-11-25T11:50:20;5.53;;;3.23;;
7669;SDS011;3877;42.562;27.636;2022-11-25T11:52:51;4.13;;;3.00;;
7669;SDS011;3877;42.562;27.636;2022-11-25T11:58:07;4.07;;;3.03;;
7669;SDS011;3877;42.562;27.636;2022-11-25T12:00:39;3.30;;;2.70;;
7669;SDS011;3877;42.562;27.636;2022-11-25T12:03:09;3.70;;;3.20;;
7669;SDS011;3877;42.562;27.636;2022-11-25T12:05:37;7.53;;;3.03;;
7669;SDS011;3877;42.562;27.636;2022-11-25T12:08:05;4.70;;;3.17;;
7669;SDS011;3877;42.562;27.636;2022-11-25T12:10:35;5.23;;;3.43;;
7669;SDS011;3877;42.562;27.636;2022-11-25T12:13:07;3.37;;;2.60;;
7669;SDS011;3877;42.562;27.636;2022-11-25T12:15:38;3.77;;;2.60;;
7669;SDS011;3877;42.562;27.636;2022-11-25T12:18:10;4.57;;;3.07;;
7669;SDS011;3877;42.562;27.636;2022-11-25T12:20:39;5.50;;;2.97;;
7669;SDS011;3877;42.562;27.636;2022-11-25T12:23:08;3.07;;;2.40;;
7669;SDS011;3877;42.562;27.636;2022-11-25T12:25:38;4.30;;;3.17;;
7669;SDS011;3877;42.562;27.636;2022-11-25T12:28:08;5.57;;;3.10;;
7669;SDS011;3877;42.562;27.636;2022-11-25T12:30:37;3.60;;;2.93;;
7669;SDS011;3877;42.562;27.636;2022-11-25T12:33:08;5.50;;;3.03;;
7669;SDS011;3877;42.562;27.636;2022-11-25T12:35:42;4.10;;;3.00;;
7669;SDS011;3877;42.562;27.636;2022-11-25T12:38:14;3.53;;;2.47;;
7669;SDS011;3877;42.562;27.636;2022-11-25T12:40:44;4.40;;;2.90;;
7669;SDS011;3877;42.562;27.636;2022-11-25T12:43:16;5.13;;;2.70;;
7669;SDS011;3877;42.562;27.636;2022-11-25T12:45:47;3.77;;;2.73;;
7669;SDS011;3877;42.562;27.636;2022-11-25T12:48:17;3.63;;;2.63;;
7669;SDS011;3877;42.562;27.636;2022-11-25T12:50:46;5.50;;;2.97;;
7669;SDS011;3877;42.562;27.636;2022-11-25T12:53:17;5.70;;;2.67;;
7669;SDS011;3877;42.562;27.636;2022-11-25T12:55:48;4.60;;;3.00;;
7669;SDS011;3877;42.562;27.636;2022-11-25T13:01:15;3.77;;;2.80;;
7669;SDS011;3877;42.562;27.636;2022-11-25T13:04:02;2.23;;;2.00;;
7669;SDS011;3877;42.562;27.636;2022-11-25T13:06:35;4.70;;;2.70;;
7669;SDS011;3877;42.562;27.636;2022-11-25T13:09:09;2.43;;;2.20;;
7669;SDS011;3877;42.562;27.636;2022-11-25T13:11:47;3.97;;;2.50;;
7669;SDS011;3877;42.562;27.636;2022-11-25T13:14:21;4.97;;;2.77;;
7669;SDS011;3877;42.562;27.636;2022-11-25T13:16:52;3.10;;;2.53;;
7669;SDS011;3877;42.562;27.636;2022-11-25T13:19:19;3.97;;;3.00;;
7669;SDS011;3877;42.562;27.636;2022-11-25T13:21:59;4.53;;;2.90;;
7669;SDS011;3877;42.562;27.636;2022-11-25T13:24:31;4.33;;;2.60;;
7669;SDS011;3877;42.562;27.636;2022-11-25T13:26:58;3.90;;;2.80;;
7669;SDS011;3877;42.562;27.636;2022-11-25T13:32:29;3.10;;;2.60;;
7669;SDS011;3877;42.562;27.636;2022-11-25T13:37:41;3.80;;;3.23;;
7669;SDS011;3877;42.562;27.636;2022-11-25T13:40:18;4.97;;;3.13;;
7669;SDS011;3877;42.562;27.636;2022-11-25T13:42:46;3.93;;;3.00;;
7669;SDS011;3877;42.562;27.636;2022-11-25T13:45:23;3.67;;;3.00;;
7669;SDS011;3877;42.562;27.636;2022-11-25T13:47:52;4.43;;;3.03;;
7669;SDS011;3877;42.562;27.636;2022-11-25T13:50:20;5.00;;;3.10;;
7669;SDS011;3877;42.562;27.636;2022-11-25T13:52:48;4.63;;;3.43;;
7669;SDS011;3877;42.562;27.636;2022-11-25T13:55:23;6.03;;;3.07;;
7669;SDS011;3877;42.562;27.636;2022-11-25T14:00:49;3.60;;;3.27;;
7669;SDS011;3877;42.562;27.636;2022-11-25T14:06:00;7.00;;;3.37;;
7669;SDS011;3877;42.562;27.636;2022-11-25T14:08:31;8.37;;;3.50;;
7669;SDS011;3877;42.562;27.636;2022-11-25T14:11:02;5.07;;;3.30;;
7669;SDS011;3877;42.562;27.636;2022-11-25T14:13:43;5.93;;;3.40;;
7669;SDS011;3877;42.562;27.636;2022-11-25T14:16:20;7.47;;;3.63;;
7669;SDS011;3877;42.562;27.636;2022-11-25T14:18:52;5.83;;;3.67;;
7669;SDS011;3877;42.562;27.636;2022-11-25T14:21:31;7.13;;;3.90;;
7669;SDS011;3877;42.562;27.636;2022-11-25T14:24:10;5.73;;;3.60;;
7669;SDS011;3877;42.562;27.636;2022-11-25T14:26:41;4.80;;;3.60;;
7669;SDS011;3877;42.562;27.636;2022-11-25T14:29:11;3.93;;;3.43;;
7669;SDS011;3877;42.562;27.636;2022-11-25T14:31:39;5.90;;;3.80;;
7669;SDS011;3877;42.562;27.636;2022-11-25T14:34:10;6.67;;;4.23;;
7669;SDS011;3877;42.562;27.636;2022-11-25T14:36:41;4.57;;;3.60;;
7669;SDS011;3877;42.562;27.636;2022-11-25T14:39:12;5.10;;;3.80;;
7669;SDS011;3877;42.562;27.636;2022-11-25T14:41:43;4.50;;;3.80;;
7669;SDS011;3877;42.562;27.636;2022-11-25T14:44:12;8.40;;;4.00;;
7669;SDS011;3877;42.562;27.636;2022-11-25T14:46:50;5.80;;;4.03;;
7669;SDS011;3877;42.562;27.636;2022-11-25T14:49:18;5.40;;;4.30;;
7669;SDS011;3877;42.562;27.636;2022-11-25T14:51:48;6.17;;;4.40;;
7669;SDS011;3877;42.562;27.636;2022-11-25T14:54:15;5.90;;;4.10;;
7669;SDS011;3877;42.562;27.636;2022-11-25T14:56:42;7.07;;;4.37;;
7669;SDS011;3877;42.562;27.636;2022-11-25T14:59:09;6.73;;;4.47;;
7669;SDS011;3877;42.562;27.636;2022-11-25T15:01:37;7.50;;;4.20;;
7669;SDS011;3877;42.562;27.636;2022-11-25T15:04:06;5.47;;;4.13;;
7669;SDS011;3877;42.562;27.636;2022-11-25T15:06:38;6.20;;;4.40;;
7669;SDS011;3877;42.562;27.636;2022-11-25T15:09:15;6.70;;;4.10;;
7669;SDS011;3877;42.562;27.636;2022-11-25T15:11:44;6.83;;;4.73;;
7669;SDS011;3877;42.562;27.636;2022-11-25T15:14:12;8.37;;;4.87;;
7669;SDS011;3877;42.562;27.636;2022-11-25T15:16:42;8.90;;;5.10;;
7669;SDS011;3877;42.562;27.636;2022-11-25T15:19:13;12.17;;;5.33;;
7669;SDS011;3877;42.562;27.636;2022-11-25T15:21:41;9.87;;;7.70;;
7669;SDS011;3877;42.562;27.636;2022-11-25T15:24:18;21.70;;;12.50;;
7669;SDS011;3877;42.562;27.636;2022-11-25T15:26:49;16.07;;;11.23;;
7669;SDS011;3877;42.562;27.636;2022-11-25T15:29:16;15.30;;;11.03;;
7669;SDS011;3877;42.562;27.636;2022-11-25T15:31:43;18.87;;;11.80;;
7669;SDS011;3877;42.562;27.636;2022-11-25T15:34:11;19.23;;;12.97;;